Pagina principale
METAR-TAF:

METAR-TAF

Aeroporti :

Aeroporto di Palermo-Punta Raisi

Palermo, Italia

latitudine: 38-11N, longitudine: 013-06E, altezza: 21 m

Osservazione

Il bollettino è stato emesso 17 minuti fa, alle 01:50 UTC
Vento 7 kt da ovest
Temperature 19°C
Umidità 73%
Pressione 1011 hPa
Visibilità 10 km o più

METAR: LICJ 160150Z AUTO 27007KT 9999 BKN130/// 19/14 Q1011

Ora: 04:07 (02:07 UTC)

Previsione

Il bollettino è stato emesso 3 ore e 7 minuti fa, alle 23:00 UTC
Previsione valida dal 16 alle 00 UTC al 16 alle 24 UTC
Vento 6 kt da direzioni variabili
Visibilità 10 km o più
Nubi sparse ad un'altezza di 4000 ft
Temporaneamente
dal 16 alle 08 UTC al 16 alle 18 UTC
pioggia,

TAF: LICJ 152300Z 1600/1624 VRB06KT 9999 SCT040 TEMPO 1608/1618 RA

Osservazioni e previsioni meteorologiche di più di 4000 aeroporti (messaggi METAR e TAF).

Le stazioni disponibili sono rappresentate dai dischi gialli e rossi sulla carta.

Puntare il mouse per vedere il nome della stazione.

Clicca sopra per visualizzare le osservazioni e previsioni meteorologiche.

Per cambiare la mappa : fare clic sui pulsanti verdi con una croce nera per ingrandire, il pulsante verde con un trattino per diminuire, o sulla freccia verde per le mappe adiacenti.


METAR-TAF: